createdAt,value
2023-02-12T00:02:51.577Z,13.13
2023-02-12T00:05:53.960Z,13.43
2023-02-12T00:08:56.755Z,15.15
2023-02-12T00:11:59.117Z,13.90
2023-02-12T00:15:01.622Z,14.38
2023-02-12T00:18:03.668Z,15.82
2023-02-12T00:21:06.052Z,15.13
2023-02-12T00:24:08.167Z,14.85
2023-02-12T00:27:10.134Z,15.20
2023-02-12T00:30:12.308Z,15.32
2023-02-12T00:33:14.393Z,15.95
2023-02-12T00:36:20.010Z,15.88
2023-02-12T00:39:22.421Z,17.13
2023-02-12T00:42:24.913Z,15.30
2023-02-12T00:45:27.286Z,16.27
2023-02-12T00:48:29.688Z,15.30
2023-02-12T00:51:31.700Z,15.77
2023-02-12T00:54:33.737Z,16.80
2023-02-12T00:57:35.762Z,16.95
2023-02-12T01:00:37.850Z,15.27
2023-02-12T01:03:40.052Z,14.77
2023-02-12T01:06:42.025Z,14.88
2023-02-12T01:09:45.421Z,14.63
2023-02-12T01:12:47.673Z,14.90
2023-02-12T01:15:49.737Z,15.50
2023-02-12T01:18:55.651Z,15.18
2023-02-12T01:21:58.452Z,14.20
2023-02-12T01:25:00.434Z,12.98
2023-02-12T01:28:02.605Z,13.55
2023-02-12T01:31:08.861Z,13.70
2023-02-12T01:34:11.448Z,13.90
2023-02-12T01:37:13.709Z,13.90
2023-02-12T01:40:16.156Z,13.60
2023-02-12T01:43:18.227Z,14.10
2023-02-12T01:46:20.596Z,13.50
2023-02-12T01:49:48.734Z,13.70
2023-02-12T01:52:51.842Z,14.17
2023-02-12T01:55:55.486Z,14.02
2023-02-12T01:58:58.269Z,14.00
2023-02-12T02:02:00.655Z,14.13
2023-02-12T02:05:03.444Z,13.77
2023-02-12T02:08:05.632Z,14.48
2023-02-12T02:11:27.670Z,14.75
2023-02-12T02:14:32.770Z,15.40
2023-02-12T02:17:43.217Z,14.98
2023-02-12T02:20:57.399Z,15.02
2023-02-12T02:24:05.126Z,14.90
2023-02-12T02:27:16.108Z,15.25
2023-02-12T02:30:45.720Z,14.98
2023-02-12T02:33:53.954Z,14.68
2023-02-12T02:37:04.729Z,15.00
2023-02-12T02:40:10.354Z,14.75
2023-02-12T02:43:16.502Z,14.80
2023-02-12T02:46:37.445Z,15.57
2023-02-12T02:49:40.709Z,14.65
2023-02-12T02:52:53.842Z,15.52
2023-02-12T02:55:56.842Z,15.33
2023-02-12T02:59:03.989Z,15.60
2023-02-12T03:02:12.009Z,16.08
2023-02-12T03:05:18.842Z,16.88
2023-02-12T03:08:24.858Z,15.50
2023-02-12T03:11:27.783Z,15.50
2023-02-12T03:14:31.243Z,15.88
2023-02-12T03:17:37.894Z,14.63
2023-02-12T03:20:42.805Z,15.32
2023-02-12T03:23:47.826Z,15.10
2023-02-12T03:26:51.475Z,16.17
2023-02-12T03:29:53.505Z,17.05
2023-02-12T03:32:59.082Z,17.38
2023-02-12T03:36:08.186Z,15.55
2023-02-12T03:39:22.333Z,16.80
2023-02-12T03:42:32.323Z,17.05
2023-02-12T03:45:37.691Z,16.67
2023-02-12T03:48:45.372Z,15.53
2023-02-12T03:51:47.453Z,16.23
2023-02-12T03:54:49.371Z,14.82
2023-02-12T03:57:53.430Z,15.27
2023-02-12T04:00:55.853Z,16.73
2023-02-12T04:03:58.345Z,15.23
2023-02-12T04:07:00.378Z,14.63
2023-02-12T04:10:02.572Z,15.88
2023-02-12T04:13:37.305Z,15.57
2023-02-12T04:16:49.108Z,14.60
2023-02-12T04:19:51.691Z,13.80
2023-02-12T04:22:54.494Z,14.85
2023-02-12T04:26:01.642Z,15.43
2023-02-12T04:29:22.797Z,15.90
2023-02-12T04:32:27.001Z,16.02
2023-02-12T04:35:35.855Z,15.95
2023-02-12T04:38:42.054Z,15.77
2023-02-12T04:41:44.454Z,15.50
2023-02-12T04:44:47.008Z,16.10
2023-02-12T04:47:49.011Z,16.30
2023-02-12T04:50:51.063Z,15.80
2023-02-12T04:53:53.512Z,15.95
2023-02-12T04:56:57.492Z,14.77
2023-02-12T04:59:59.721Z,15.27
2023-02-12T05:03:01.772Z,16.13
2023-02-12T05:06:08.010Z,17.00
2023-02-12T05:09:10.936Z,15.77
2023-02-12T05:12:13.389Z,14.98
2023-02-12T05:15:15.563Z,14.48
2023-02-12T05:18:17.640Z,15.25
2023-02-12T05:21:19.627Z,15.80
2023-02-12T05:24:21.560Z,14.90
2023-02-12T05:27:23.673Z,20.48
2023-02-12T05:30:26.058Z,17.33
2023-02-12T05:33:28.060Z,16.98
2023-02-12T05:36:30.057Z,16.83
2023-02-12T05:39:32.477Z,16.30
2023-02-12T05:42:34.867Z,15.43
2023-02-12T05:45:38.228Z,16.38
2023-02-12T05:48:40.611Z,17.38
2023-02-12T05:51:42.564Z,16.53
2023-02-12T05:54:44.481Z,16.17
2023-02-12T05:57:46.514Z,17.00
2023-02-12T06:00:48.518Z,18.37
2023-02-12T06:03:50.517Z,18.23
2023-02-12T06:06:52.799Z,19.77
2023-02-12T06:09:57.728Z,19.00
2023-02-12T06:12:59.901Z,21.13
2023-02-12T06:16:02.213Z,21.58
2023-02-12T06:19:05.004Z,19.05
2023-02-12T06:22:07.392Z,19.67
2023-02-12T06:25:09.435Z,22.67
2023-02-12T06:28:11.442Z,21.08
2023-02-12T06:31:24.288Z,22.10
2023-02-12T06:34:26.351Z,22.70
2023-02-12T06:37:28.361Z,25.65
2023-02-12T06:40:30.389Z,22.33
2023-02-12T06:43:32.889Z,22.55
2023-02-12T06:46:35.311Z,22.05
2023-02-12T06:49:37.770Z,23.63
2023-02-12T06:52:39.738Z,22.43
2023-02-12T06:55:41.694Z,22.35
2023-02-12T06:58:44.836Z,23.48
2023-02-12T07:01:47.222Z,23.43
2023-02-12T07:04:49.363Z,25.88
2023-02-12T07:07:51.499Z,26.10
2023-02-12T07:10:53.504Z,23.70
2023-02-12T07:13:55.913Z,22.63
2023-02-12T07:16:57.928Z,24.05
2023-02-12T07:20:00.048Z,25.90
2023-02-12T07:23:02.132Z,26.80
2023-02-12T07:26:05.480Z,26.67
2023-02-12T07:29:08.137Z,27.13
2023-02-12T07:32:10.622Z,23.87
2023-02-12T07:35:13.139Z,23.35
2023-02-12T07:38:15.163Z,22.45
2023-02-12T07:41:21.163Z,22.13
2023-02-12T07:44:23.256Z,23.10
2023-02-12T07:47:25.410Z,26.67
2023-02-12T07:50:27.430Z,28.85
2023-02-12T07:53:29.441Z,29.60
2023-02-12T07:56:32.968Z,26.17
2023-02-12T07:59:35.405Z,22.85
2023-02-12T08:02:37.442Z,23.13
2023-02-12T08:05:39.752Z,21.48
2023-02-12T08:08:42.193Z,23.48
2023-02-12T08:11:44.409Z,20.83
2023-02-12T08:14:46.416Z,19.25
2023-02-12T08:17:48.396Z,22.13
2023-02-12T08:20:50.364Z,23.95
2023-02-12T08:23:53.763Z,20.23
2023-02-12T08:26:56.242Z,17.92
2023-02-12T08:29:58.570Z,18.52
2023-02-12T08:33:00.510Z,18.47
2023-02-12T08:36:12.094Z,18.13
2023-02-12T08:39:14.222Z,19.13
2023-02-12T08:42:16.646Z,16.92
2023-02-12T08:45:19.101Z,19.75
2023-02-12T08:48:21.085Z,19.33
2023-02-12T08:51:23.825Z,19.52
2023-02-12T08:54:27.232Z,19.17
2023-02-12T08:57:29.202Z,17.17
2023-02-12T09:00:31.260Z,17.85
2023-02-12T09:03:33.251Z,19.13
2023-02-12T09:06:35.754Z,17.40
2023-02-12T09:09:39.310Z,17.95
2023-02-12T09:12:41.624Z,17.58
2023-02-12T09:15:45.069Z,17.38
2023-02-12T09:18:47.173Z,16.60
2023-02-12T09:21:55.581Z,17.13
2023-02-12T09:24:58.250Z,15.97
2023-02-12T09:28:00.848Z,16.45
2023-02-12T09:31:07.072Z,15.25
2023-02-12T09:34:09.289Z,16.33
2023-02-12T09:37:11.808Z,16.40
2023-02-12T09:40:18.298Z,17.40
2023-02-12T09:43:26.206Z,14.75
2023-02-12T09:46:30.576Z,15.17
2023-02-12T09:49:35.366Z,13.30
2023-02-12T09:52:37.506Z,14.13
2023-02-12T09:55:40.060Z,14.30
2023-02-12T09:58:43.450Z,7.88
2023-02-12T10:01:45.592Z,5.67
2023-02-12T10:05:00.156Z,5.80
2023-02-12T10:08:02.854Z,5.82
2023-02-12T10:11:23.137Z,5.85
2023-02-12T10:14:37.585Z,6.10
2023-02-12T10:17:43.404Z,5.67
2023-02-12T10:20:57.585Z,5.88
2023-02-12T10:24:18.927Z,5.93
2023-02-12T10:27:25.174Z,5.93
2023-02-12T10:30:28.783Z,6.30
2023-02-12T10:33:44.305Z,5.77
2023-02-12T10:36:47.485Z,5.75
2023-02-12T10:39:57.761Z,6.20
2023-02-12T10:43:00.404Z,7.03
2023-02-12T10:46:02.983Z,7.13
2023-02-12T10:49:05.052Z,7.43
2023-02-12T10:52:09.823Z,7.32
2023-02-12T10:55:28.248Z,8.07
2023-02-12T10:58:30.585Z,7.68
2023-02-12T11:01:37.689Z,5.97
2023-02-12T11:04:40.367Z,7.10
2023-02-12T11:07:49.231Z,10.27
2023-02-12T11:10:51.646Z,6.80
2023-02-12T11:13:54.690Z,10.73
2023-02-12T11:16:57.268Z,9.88
2023-02-12T11:20:09.792Z,10.73
2023-02-12T11:23:45.236Z,11.73
2023-02-12T11:26:47.206Z,12.73
2023-02-12T11:30:05.164Z,12.52
2023-02-12T11:33:36.394Z,13.10
2023-02-12T11:36:40.638Z,9.80
2023-02-12T11:39:42.942Z,11.07
2023-02-12T11:42:47.316Z,16.67
2023-02-12T11:45:49.996Z,21.10
2023-02-12T11:48:52.919Z,23.80
2023-02-12T11:51:54.964Z,24.87
2023-02-12T11:54:57.632Z,25.27
2023-02-12T11:58:03.587Z,23.40
2023-02-12T12:01:05.873Z,25.23
2023-02-12T12:04:17.693Z,25.98
2023-02-12T12:07:21.935Z,25.57
2023-02-12T12:10:34.129Z,26.45
2023-02-12T12:13:38.794Z,25.90
2023-02-12T12:17:06.206Z,27.88
2023-02-12T12:20:12.685Z,30.05
2023-02-12T12:23:19.087Z,27.00
2023-02-12T12:26:22.500Z,27.05
2023-02-12T12:29:24.979Z,26.88
2023-02-12T12:32:27.018Z,26.17
2023-02-12T12:35:41.107Z,27.40
2023-02-12T12:38:44.564Z,26.95
2023-02-12T12:41:59.306Z,25.80
2023-02-12T12:45:25.462Z,25.10
2023-02-12T12:48:36.996Z,26.40
2023-02-12T12:51:45.112Z,25.77
2023-02-12T12:54:47.165Z,27.63
2023-02-12T12:57:55.125Z,26.40
2023-02-12T13:00:57.238Z,26.43
2023-02-12T13:04:12.042Z,25.58
2023-02-12T13:07:22.354Z,27.52
2023-02-12T13:10:36.494Z,22.92
2023-02-12T13:13:42.859Z,24.97
2023-02-12T13:17:00.497Z,21.02
2023-02-12T13:20:02.985Z,21.08
2023-02-12T13:23:12.221Z,20.53
2023-02-12T13:26:16.376Z,18.73
2023-02-12T13:29:32.462Z,17.92
2023-02-12T13:32:36.463Z,15.43
2023-02-12T13:35:40.226Z,12.73
2023-02-12T13:38:54.965Z,13.73
2023-02-12T13:42:20.758Z,12.30
2023-02-12T13:45:25.720Z,12.98
2023-02-12T13:48:33.768Z,13.27
2023-02-12T13:51:48.797Z,11.93
2023-02-12T13:54:53.660Z,12.23
2023-02-12T13:58:14.426Z,13.07
2023-02-12T14:01:36.771Z,12.52
2023-02-12T14:04:48.002Z,12.50
2023-02-12T14:07:50.924Z,11.47
2023-02-12T14:11:06.842Z,12.60
2023-02-12T14:14:08.868Z,11.43
2023-02-12T14:17:29.815Z,13.40
2023-02-12T14:20:35.109Z,12.80
2023-02-12T14:23:38.190Z,11.97
2023-02-12T14:26:40.555Z,12.07
2023-02-12T14:30:00.030Z,16.45
2023-02-12T14:33:08.498Z,13.77
2023-02-12T14:36:16.704Z,15.43
2023-02-12T14:39:22.295Z,16.83
2023-02-12T14:42:24.657Z,14.73
2023-02-12T14:45:28.219Z,15.32
2023-02-12T14:48:41.308Z,17.70
2023-02-12T14:51:43.422Z,19.77
2023-02-12T14:54:59.118Z,16.65
2023-02-12T14:58:02.814Z,18.58
2023-02-12T15:01:04.880Z,20.00
2023-02-12T15:04:16.688Z,14.53
2023-02-12T15:07:23.080Z,14.95
2023-02-12T15:10:27.598Z,16.48
2023-02-12T15:13:30.732Z,17.00
2023-02-12T15:16:45.273Z,20.20
2023-02-12T15:20:02.151Z,23.90
2023-02-12T15:23:24.550Z,32.35
2023-02-12T15:26:26.586Z,35.33
2023-02-12T15:29:29.582Z,38.70
2023-02-12T15:32:31.609Z,30.67
2023-02-12T15:35:34.307Z,27.70
2023-02-12T15:38:37.756Z,30.83
2023-02-12T15:41:40.442Z,30.77
2023-02-12T15:44:42.776Z,34.72
2023-02-12T15:47:46.024Z,36.13
2023-02-12T15:50:51.240Z,29.15
2023-02-12T15:53:53.239Z,27.67
2023-02-12T15:56:55.914Z,26.70
2023-02-12T16:00:00.036Z,24.75
2023-02-12T16:03:02.391Z,20.88
2023-02-12T16:06:05.698Z,22.20
2023-02-12T16:09:08.962Z,21.60
2023-02-12T16:12:13.692Z,20.92
2023-02-12T16:15:26.384Z,23.37
2023-02-12T16:18:28.415Z,25.63
2023-02-12T16:21:30.955Z,26.80
2023-02-12T16:24:34.413Z,27.92
2023-02-12T16:27:36.519Z,30.23
2023-02-12T16:30:39.142Z,29.77
2023-02-12T16:33:41.251Z,27.75
2023-02-12T16:36:45.997Z,28.10
2023-02-12T16:39:54.264Z,30.92
2023-02-12T16:42:57.299Z,37.08
2023-02-12T16:46:05.881Z,36.93
2023-02-12T16:49:10.188Z,31.85
2023-02-12T16:52:19.479Z,32.97
2023-02-12T16:55:21.809Z,41.33
2023-02-12T16:58:25.914Z,38.40
2023-02-12T17:01:28.779Z,38.45
2023-02-12T17:04:31.036Z,39.10
2023-02-12T17:07:33.537Z,59.77
2023-02-12T17:10:35.548Z,70.25
2023-02-12T17:13:37.905Z,58.78
2023-02-12T17:16:39.951Z,49.73
2023-02-12T17:19:42.088Z,46.75
2023-02-12T17:22:53.233Z,48.75
2023-02-12T17:25:56.010Z,46.67
2023-02-12T17:29:05.371Z,47.92
2023-02-12T17:32:09.379Z,44.95
2023-02-12T17:35:11.815Z,47.90
2023-02-12T17:38:13.850Z,47.47
2023-02-12T17:41:16.218Z,45.17
2023-02-12T17:44:18.236Z,43.45
2023-02-12T17:47:20.413Z,45.13
2023-02-12T17:50:22.522Z,45.47
2023-02-12T17:53:24.693Z,45.88
2023-02-12T17:56:26.858Z,41.75
2023-02-12T17:59:29.413Z,38.97
2023-02-12T18:02:31.508Z,40.63
2023-02-12T18:05:33.727Z,42.22
2023-02-12T18:08:36.190Z,43.73
2023-02-12T18:11:40.335Z,55.70
2023-02-12T18:14:44.073Z,54.35
2023-02-12T18:17:46.012Z,52.60
2023-02-12T18:20:48.380Z,57.72
2023-02-12T18:23:57.209Z,89.43
2023-02-12T18:26:59.137Z,61.47
2023-02-12T18:30:01.562Z,48.60
2023-02-12T18:33:03.684Z,50.20
2023-02-12T18:36:07.086Z,45.05
2023-02-12T18:39:09.055Z,44.77
2023-02-12T18:42:11.203Z,45.15
2023-02-12T18:45:13.719Z,48.58
2023-02-12T18:48:15.670Z,47.20
2023-02-12T18:51:18.617Z,53.83
2023-02-12T18:54:20.831Z,53.40
2023-02-12T18:57:22.761Z,53.75
2023-02-12T19:00:24.843Z,55.42
2023-02-12T19:03:26.990Z,54.47
2023-02-12T19:06:29.507Z,52.10
2023-02-12T19:09:31.648Z,50.73
2023-02-12T19:12:33.696Z,51.80
2023-02-12T19:15:38.346Z,53.92
2023-02-12T19:18:40.690Z,50.67
2023-02-12T19:21:49.295Z,46.83
2023-02-12T19:24:51.787Z,47.53
2023-02-12T19:27:53.780Z,53.50
2023-02-12T19:30:56.521Z,53.80
2023-02-12T19:34:00.077Z,51.67
2023-02-12T19:37:02.084Z,43.40
2023-02-12T19:40:04.065Z,38.27
2023-02-12T19:43:06.602Z,37.97
2023-02-12T19:46:13.011Z,37.22
2023-02-12T19:49:16.198Z,32.63
2023-02-12T19:52:18.241Z,31.75
2023-02-12T19:55:20.631Z,28.88
2023-02-12T19:58:22.783Z,28.02
2023-02-12T20:01:24.912Z,27.83
2023-02-12T20:04:27.304Z,28.13
2023-02-12T20:07:29.639Z,28.15
2023-02-12T20:10:31.769Z,25.93
2023-02-12T20:13:34.041Z,24.85
2023-02-12T20:16:38.223Z,25.80
2023-02-12T20:19:40.721Z,23.70
2023-02-12T20:22:42.689Z,25.20
2023-02-12T20:25:44.804Z,27.25
2023-02-12T20:28:47.139Z,26.77
2023-02-12T20:31:49.460Z,25.52
2023-02-12T20:34:51.749Z,23.73
2023-02-12T20:37:54.352Z,24.25
2023-02-12T20:40:59.345Z,24.93
2023-02-12T20:44:01.441Z,22.42
2023-02-12T20:47:03.664Z,21.30
2023-02-12T20:50:06.616Z,22.43
2023-02-12T20:53:09.074Z,20.70
2023-02-12T20:56:11.837Z,21.30
2023-02-12T20:59:14.151Z,20.27
2023-02-12T21:02:16.124Z,21.95
2023-02-12T21:05:18.611Z,20.90
2023-02-12T21:08:20.682Z,21.30
2023-02-12T21:11:23.557Z,20.97
2023-02-12T21:14:26.266Z,21.52
2023-02-12T21:17:28.158Z,19.15
2023-02-12T21:20:30.219Z,17.63
2023-02-12T21:23:35.476Z,15.15
2023-02-12T21:26:37.640Z,16.13
2023-02-12T21:29:40.499Z,15.18
2023-02-12T21:32:42.414Z,14.10
2023-02-12T21:35:44.414Z,15.35
2023-02-12T21:38:47.177Z,15.40
2023-02-12T21:41:49.809Z,12.73
2023-02-12T21:44:52.250Z,11.48
2023-02-12T21:47:54.418Z,10.82
2023-02-12T21:50:57.137Z,11.20
2023-02-12T21:54:00.078Z,11.23
2023-02-12T21:57:02.527Z,10.70
2023-02-12T22:00:04.987Z,10.02
2023-02-12T22:03:14.277Z,9.68
2023-02-12T22:06:19.891Z,9.15
2023-02-12T22:09:22.482Z,9.10
2023-02-12T22:12:24.581Z,11.27
2023-02-12T22:15:26.570Z,11.32
2023-02-12T22:18:28.991Z,10.90
2023-02-12T22:21:31.822Z,10.40
2023-02-12T22:24:34.444Z,10.43
2023-02-12T22:27:36.417Z,10.82
2023-02-12T22:30:39.761Z,10.70
2023-02-12T22:33:42.112Z,11.15
2023-02-12T22:36:44.584Z,12.50
2023-02-12T22:39:46.944Z,13.73
2023-02-12T22:42:49.442Z,12.63
2023-02-12T22:45:51.519Z,13.05
2023-02-12T22:48:54.055Z,9.98
2023-02-12T22:51:56.076Z,9.87
2023-02-12T22:54:58.110Z,9.77
2023-02-12T22:58:00.067Z,8.15
2023-02-12T23:01:08.571Z,8.88
2023-02-12T23:04:17.636Z,9.07
2023-02-12T23:07:20.042Z,9.23
2023-02-12T23:10:22.334Z,9.20
2023-02-12T23:13:29.698Z,9.27
2023-02-12T23:16:32.406Z,8.38
2023-02-12T23:19:34.605Z,8.90
2023-02-12T23:22:36.608Z,7.93
2023-02-12T23:25:38.946Z,12.45
2023-02-12T23:28:41.429Z,14.38
2023-02-12T23:31:44.244Z,19.75
2023-02-12T23:34:47.428Z,18.23
2023-02-12T23:37:49.846Z,10.48
2023-02-12T23:40:51.857Z,8.38
2023-02-12T23:43:54.416Z,8.03
2023-02-12T23:46:57.478Z,7.93
2023-02-12T23:49:59.406Z,7.88
2023-02-12T23:53:01.501Z,8.07
2023-02-12T23:56:03.973Z,7.35
2023-02-12T23:59:06.392Z,7.63
